createdAt,value
2022-10-09T00:00:01.456Z,7.8
2022-10-09T00:01:03.934Z,8.1
2022-10-09T00:02:01.130Z,8.2
2022-10-09T00:03:01.420Z,8.2
2022-10-09T00:04:01.393Z,8.2
2022-10-09T00:05:01.222Z,8.2
2022-10-09T00:06:01.060Z,8.3
2022-10-09T00:07:01.046Z,8.6
2022-10-09T00:08:01.449Z,8.7
2022-10-09T00:09:01.164Z,8.7
2022-10-09T00:10:04.318Z,8.8
2022-10-09T00:11:02.178Z,8.9
2022-10-09T00:12:00.577Z,9
2022-10-09T00:13:00.195Z,9
2022-10-09T00:13:59.924Z,9.1
2022-10-09T00:14:59.627Z,9
2022-10-09T00:16:01.685Z,8.9
2022-10-09T00:17:01.474Z,8.9
2022-10-09T00:18:01.046Z,9
2022-10-09T00:19:01.139Z,9
2022-10-09T00:20:01.052Z,9.1
2022-10-09T00:21:01.048Z,9.2
2022-10-09T00:22:01.037Z,9.2
2022-10-09T00:23:01.281Z,9.1
2022-10-09T00:24:01.304Z,8.8
2022-10-09T00:25:01.529Z,8.6
2022-10-09T00:26:04.439Z,8.7
2022-10-09T00:27:01.050Z,8.7
2022-10-09T00:28:01.060Z,8.5
2022-10-09T00:29:01.172Z,8.6
2022-10-09T00:30:01.047Z,8
2022-10-09T00:31:01.099Z,8.1
2022-10-09T00:32:01.458Z,8
2022-10-09T00:33:01.177Z,8
2022-10-09T00:34:01.052Z,8.1
2022-10-09T00:35:01.039Z,8
2022-10-09T00:36:01.040Z,8.4
2022-10-09T00:37:01.060Z,8.4
2022-10-09T00:38:01.196Z,8.1
2022-10-09T00:39:01.220Z,8.2
2022-10-09T00:40:01.158Z,8.8
2022-10-09T00:41:01.771Z,8.9
2022-10-09T00:42:01.953Z,9
2022-10-09T00:43:01.638Z,8.9
2022-10-09T00:44:02.061Z,8.8
2022-10-09T00:45:01.797Z,8.9
2022-10-09T00:46:01.782Z,8.6
2022-10-09T00:47:01.073Z,8.9
2022-10-09T00:48:01.208Z,9
2022-10-09T00:49:01.207Z,8.8
2022-10-09T00:50:01.048Z,9.1
2022-10-09T00:51:01.043Z,9.3
2022-10-09T00:52:01.156Z,9.4
2022-10-09T00:53:01.045Z,9.3
2022-10-09T00:54:01.055Z,8.9
2022-10-09T00:55:01.120Z,8.9
2022-10-09T00:56:01.047Z,9.1
2022-10-09T00:57:01.238Z,9.1
2022-10-09T00:58:01.851Z,9.2
2022-10-09T00:59:01.877Z,9
2022-10-09T01:00:02.487Z,9
2022-10-09T01:01:01.133Z,9
2022-10-09T01:02:02.047Z,8.9
2022-10-09T01:03:01.810Z,8.8
2022-10-09T01:04:01.355Z,8.8
2022-10-09T01:05:01.217Z,8.5
2022-10-09T01:06:01.053Z,8.6
2022-10-09T01:07:04.655Z,8.7
2022-10-09T01:08:01.044Z,9
2022-10-09T01:09:01.057Z,9
2022-10-09T01:10:01.142Z,9.2
2022-10-09T01:11:01.329Z,9.4
2022-10-09T01:12:06.865Z,9.1
2022-10-09T01:13:01.091Z,9.1
2022-10-09T01:14:01.057Z,9.1
2022-10-09T01:15:01.051Z,9.1
2022-10-09T01:16:01.150Z,9
2022-10-09T01:17:10.412Z,9
2022-10-09T01:18:00.976Z,8.9
2022-10-09T01:19:01.281Z,8.8
2022-10-09T01:20:01.447Z,9
2022-10-09T01:21:01.324Z,9.1
2022-10-09T01:22:12.106Z,9.3
2022-10-09T01:23:02.113Z,9.1
2022-10-09T01:24:01.814Z,9.1
2022-10-09T01:25:02.855Z,9.2
2022-10-09T01:26:01.698Z,9.4
2022-10-09T01:27:14.003Z,9.8
2022-10-09T01:28:01.303Z,10.8
2022-10-09T01:29:01.047Z,10.5
2022-10-09T01:30:01.058Z,9.6
2022-10-09T01:31:01.177Z,9.6
2022-10-09T01:32:15.998Z,9.9
2022-10-09T01:33:02.360Z,11
2022-10-09T01:34:02.346Z,10.9
2022-10-09T01:35:01.940Z,11
2022-10-09T01:36:01.108Z,10.8
2022-10-09T01:37:01.044Z,10.4
2022-10-09T01:38:01.052Z,10.7
2022-10-09T01:39:01.073Z,10.9
2022-10-09T01:40:01.089Z,10.8
2022-10-09T01:41:01.814Z,10.7
2022-10-09T01:42:01.244Z,10.8
2022-10-09T01:43:02.177Z,10.6
2022-10-09T01:44:02.836Z,10.7
2022-10-09T01:45:01.055Z,10.9
2022-10-09T01:46:01.080Z,10.8
2022-10-09T01:47:01.051Z,10.7
2022-10-09T01:48:01.621Z,10.5
2022-10-09T01:49:01.771Z,10.1
2022-10-09T01:50:02.148Z,10.1
2022-10-09T01:51:01.470Z,10.3
2022-10-09T01:52:01.073Z,10.4
2022-10-09T01:53:01.043Z,10.2
2022-10-09T01:54:01.054Z,10.2
2022-10-09T01:55:01.072Z,10.5
2022-10-09T01:56:01.084Z,11
2022-10-09T01:57:01.061Z,10.5
2022-10-09T01:58:01.441Z,10.6
2022-10-09T01:59:01.055Z,10.8
2022-10-09T02:00:01.041Z,10.6
2022-10-09T02:01:01.045Z,10.6
2022-10-09T02:02:01.254Z,10.7
2022-10-09T02:03:02.523Z,10.9
2022-10-09T02:04:02.508Z,10.9
2022-10-09T02:05:01.727Z,10.7
2022-10-09T02:06:02.016Z,10.5
2022-10-09T02:07:01.277Z,10.6
2022-10-09T02:08:01.063Z,10.5
2022-10-09T02:09:01.056Z,10.4
2022-10-09T02:10:01.065Z,10.6
2022-10-09T02:11:01.067Z,10.7
2022-10-09T02:12:01.053Z,10.6
2022-10-09T02:13:01.764Z,10.6
2022-10-09T02:14:01.435Z,10.9
2022-10-09T02:15:01.056Z,11.1
2022-10-09T02:16:01.141Z,11
2022-10-09T02:17:03.880Z,11.4
2022-10-09T02:18:01.221Z,11
2022-10-09T02:19:01.069Z,11.4
2022-10-09T02:20:01.411Z,11.6
2022-10-09T02:21:01.483Z,11.4
2022-10-09T02:22:01.153Z,11.3
2022-10-09T02:23:01.041Z,11.1
2022-10-09T02:24:08.631Z,11
2022-10-09T02:25:01.043Z,10.9
2022-10-09T02:26:00.675Z,10.8
2022-10-09T02:27:00.604Z,10.8
2022-10-09T02:28:00.210Z,10.6
2022-10-09T02:28:59.856Z,10.7
2022-10-09T02:30:02.001Z,10.7
2022-10-09T02:31:03.877Z,10.9
2022-10-09T02:32:01.066Z,10.9
2022-10-09T02:33:01.051Z,10.6
2022-10-09T02:34:01.078Z,10.6
2022-10-09T02:35:01.051Z,10.8
2022-10-09T02:36:01.059Z,10.7
2022-10-09T02:37:01.052Z,10.5
2022-10-09T02:38:01.075Z,10.6
2022-10-09T02:39:01.745Z,10.8
2022-10-09T02:40:01.060Z,11
2022-10-09T02:41:01.055Z,10.9
2022-10-09T02:42:01.080Z,11.2
2022-10-09T02:43:01.619Z,11
2022-10-09T02:44:01.064Z,10.7
2022-10-09T02:45:01.045Z,10.7
2022-10-09T02:46:01.080Z,10.8
2022-10-09T02:47:01.054Z,11
2022-10-09T02:48:03.817Z,11
2022-10-09T02:49:01.042Z,10.9
2022-10-09T02:50:01.049Z,11.2
2022-10-09T02:51:01.376Z,11.3
2022-10-09T02:52:01.696Z,11.1
2022-10-09T02:53:07.582Z,11.1
2022-10-09T02:54:01.719Z,11
2022-10-09T02:55:01.679Z,10.8
2022-10-09T02:56:01.691Z,11.1
2022-10-09T02:57:02.492Z,11
2022-10-09T02:58:09.559Z,11
2022-10-09T02:59:01.692Z,10.9
2022-10-09T03:00:01.450Z,10.8
2022-10-09T03:01:01.193Z,10.8
2022-10-09T03:02:08.094Z,11.4
2022-10-09T03:03:13.330Z,11.4
2022-10-09T03:04:00.746Z,11.5
2022-10-09T03:05:03.924Z,11.3
2022-10-09T03:06:01.174Z,11.3
2022-10-09T03:07:02.335Z,10.9
2022-10-09T03:08:15.303Z,10.9
2022-10-09T03:09:00.972Z,10.9
2022-10-09T03:10:01.047Z,10.6
2022-10-09T03:11:01.046Z,10.6
2022-10-09T03:12:01.051Z,10.8
2022-10-09T03:13:01.062Z,10.9
2022-10-09T03:14:01.059Z,10.8
2022-10-09T03:15:01.035Z,10.7
2022-10-09T03:16:01.115Z,11
2022-10-09T03:17:01.049Z,11.3
2022-10-09T03:18:01.072Z,11.5
2022-10-09T03:19:01.430Z,11.3
2022-10-09T03:20:01.053Z,11.5
2022-10-09T03:21:01.901Z,11.4
2022-10-09T03:22:01.329Z,11.3
2022-10-09T03:23:01.093Z,11.2
2022-10-09T03:24:01.062Z,11.2
2022-10-09T03:25:01.157Z,11.1
2022-10-09T03:26:01.175Z,11.1
2022-10-09T03:27:01.783Z,11.2
2022-10-09T03:28:01.784Z,11.4
2022-10-09T03:29:01.417Z,11.4
2022-10-09T03:30:02.797Z,11.4
2022-10-09T03:31:01.147Z,11.6
2022-10-09T03:32:01.933Z,11.9
2022-10-09T03:33:01.083Z,12
2022-10-09T03:34:01.085Z,11.8
2022-10-09T03:35:01.126Z,11.6
2022-10-09T03:36:01.163Z,11.2
2022-10-09T03:37:01.058Z,11.3
2022-10-09T03:38:01.046Z,11.6
2022-10-09T03:39:01.088Z,11.9
2022-10-09T03:40:02.305Z,12.1
2022-10-09T03:41:01.073Z,11.8
2022-10-09T03:42:01.052Z,11.8
2022-10-09T03:43:01.067Z,11.7
2022-10-09T03:44:01.194Z,11.7
2022-10-09T03:45:01.049Z,11.6
2022-10-09T03:46:01.282Z,11.4
2022-10-09T03:47:02.338Z,11.1
2022-10-09T03:48:02.252Z,11.3
2022-10-09T03:49:02.565Z,11.5
2022-10-09T03:50:01.042Z,11.5
2022-10-09T03:51:01.039Z,11.8
2022-10-09T03:52:01.092Z,12
2022-10-09T03:53:01.037Z,11.9
2022-10-09T03:54:01.051Z,11.4
2022-10-09T03:55:01.159Z,11.6
2022-10-09T03:56:01.066Z,11.6
2022-10-09T03:57:01.053Z,11.9
2022-10-09T03:58:01.042Z,11.8
2022-10-09T03:59:01.068Z,11.6
2022-10-09T04:00:01.140Z,11.5
2022-10-09T04:01:01.087Z,11.6
2022-10-09T04:02:01.101Z,11.4
2022-10-09T04:03:01.169Z,11.3
2022-10-09T04:04:01.050Z,11.3
2022-10-09T04:05:01.050Z,11.2
2022-10-09T04:06:01.040Z,11.2
2022-10-09T04:07:01.066Z,11
2022-10-09T04:08:01.053Z,11
2022-10-09T04:09:01.057Z,10.8
2022-10-09T04:10:01.118Z,11
2022-10-09T04:11:01.715Z,11
2022-10-09T04:12:01.440Z,10.7
2022-10-09T04:13:01.446Z,10.9
2022-10-09T04:14:01.064Z,11
2022-10-09T04:15:01.051Z,10.6
2022-10-09T04:16:01.106Z,10.8
2022-10-09T04:17:01.060Z,10.8
2022-10-09T04:18:00.633Z,10.9
2022-10-09T04:19:00.392Z,11.2
2022-10-09T04:19:59.984Z,11.7
2022-10-09T04:20:59.583Z,11.8
2022-10-09T04:22:01.190Z,11.5
2022-10-09T04:23:01.776Z,11.5
2022-10-09T04:24:00.894Z,11.4
2022-10-09T04:25:01.204Z,11.6
2022-10-09T04:26:02.496Z,11.7
2022-10-09T04:27:01.730Z,11.5
2022-10-09T04:28:01.109Z,11.9
2022-10-09T04:29:04.222Z,11.5
2022-10-09T04:30:01.103Z,11.4
2022-10-09T04:31:01.051Z,11.6
2022-10-09T04:32:01.087Z,11.6
2022-10-09T04:33:01.047Z,11.4
2022-10-09T04:34:04.327Z,11.5
2022-10-09T04:35:01.038Z,11.4
2022-10-09T04:36:01.044Z,11.2
2022-10-09T04:37:01.109Z,11.1
2022-10-09T04:38:01.135Z,11.1
2022-10-09T04:39:05.791Z,11.1
2022-10-09T04:40:00.790Z,11.1
2022-10-09T04:41:01.038Z,11
2022-10-09T04:42:01.042Z,11.1
2022-10-09T04:43:01.294Z,11
2022-10-09T04:44:09.332Z,10.9
2022-10-09T04:45:01.294Z,10.8
2022-10-09T04:46:01.485Z,10.9
2022-10-09T04:47:01.177Z,11
2022-10-09T04:48:01.057Z,11
2022-10-09T04:49:12.778Z,11
2022-10-09T04:50:01.390Z,10.9
2022-10-09T04:51:01.750Z,10.9
2022-10-09T04:52:02.468Z,10.7
2022-10-09T04:53:01.886Z,10.6
2022-10-09T04:54:15.131Z,10.7
2022-10-09T04:55:01.333Z,10.7
2022-10-09T04:56:01.197Z,10.7
2022-10-09T04:57:01.353Z,11.2
2022-10-09T04:58:01.551Z,11.2
2022-10-09T04:59:16.903Z,10.7
2022-10-09T05:00:02.633Z,10.7
2022-10-09T05:01:01.618Z,10.9
2022-10-09T05:02:01.748Z,11.3
2022-10-09T05:03:02.917Z,11.4
2022-10-09T05:04:01.376Z,11.2
2022-10-09T05:05:01.139Z,11.4
2022-10-09T05:06:00.780Z,11.8
2022-10-09T05:07:00.403Z,11.7
2022-10-09T05:07:59.977Z,11.6
2022-10-09T05:08:59.567Z,11.3
2022-10-09T05:10:01.289Z,11.6
2022-10-09T05:11:04.139Z,11.7
2022-10-09T05:12:01.708Z,11.7
2022-10-09T05:13:02.337Z,11.7
2022-10-09T05:14:01.912Z,11.6
2022-10-09T05:15:02.057Z,11.8
2022-10-09T05:16:01.251Z,11.7
2022-10-09T05:17:13.811Z,11.6
2022-10-09T05:18:01.053Z,11.6
2022-10-09T05:19:01.075Z,11.7
2022-10-09T05:20:01.094Z,11.9
2022-10-09T05:21:01.870Z,12.2
2022-10-09T05:22:02.046Z,12.4
2022-10-09T05:23:01.691Z,12.5
2022-10-09T05:24:01.886Z,12.8
2022-10-09T05:25:01.296Z,13
2022-10-09T05:26:01.950Z,13.2
2022-10-09T05:27:01.288Z,13.2
2022-10-09T05:28:01.446Z,13.2
2022-10-09T05:29:02.701Z,13.2
2022-10-09T05:30:01.502Z,13.3
2022-10-09T05:31:02.344Z,13.2
2022-10-09T05:32:01.739Z,13.4
2022-10-09T05:33:01.170Z,13.6
2022-10-09T05:34:01.052Z,13.7
2022-10-09T05:35:01.162Z,13.4
2022-10-09T05:36:01.444Z,13.4
2022-10-09T05:37:01.146Z,13.4
2022-10-09T05:38:01.058Z,13.5
2022-10-09T05:39:01.056Z,13.5
2022-10-09T05:40:00.742Z,13.5
2022-10-09T05:41:00.325Z,13.6
2022-10-09T05:42:00.001Z,13.6
2022-10-09T05:42:59.869Z,13.3
2022-10-09T05:44:01.484Z,13.3
2022-10-09T05:45:03.163Z,13.2
2022-10-09T05:46:02.049Z,13
2022-10-09T05:47:01.712Z,12.9
2022-10-09T05:48:01.078Z,12.9
2022-10-09T05:49:01.065Z,12.7
2022-10-09T05:50:00.764Z,12.8
2022-10-09T05:51:01.430Z,12.8
2022-10-09T05:52:02.065Z,12.9
2022-10-09T05:53:01.052Z,12.9
2022-10-09T05:54:01.052Z,13.1
2022-10-09T05:55:00.653Z,13.3
2022-10-09T05:56:03.561Z,13.3
2022-10-09T05:57:01.368Z,13.3
2022-10-09T05:58:01.939Z,13.4
2022-10-09T05:59:01.431Z,13.4
2022-10-09T06:00:01.058Z,13.7
2022-10-09T06:01:01.914Z,13.4
2022-10-09T06:02:01.146Z,13.7
2022-10-09T06:03:01.879Z,13.7
2022-10-09T06:04:02.700Z,13.6
2022-10-09T06:05:01.457Z,13.9
2022-10-09T06:06:01.116Z,14.2
2022-10-09T06:07:02.015Z,14.2
2022-10-09T06:08:00.745Z,14.3
2022-10-09T06:09:00.332Z,14.4
2022-10-09T06:10:00.920Z,14.5
2022-10-09T06:11:00.689Z,14.6
2022-10-09T06:12:00.353Z,14.7
2022-10-09T06:12:59.950Z,14.8
2022-10-09T06:13:59.577Z,14.9
2022-10-09T06:15:04.639Z,14.9
2022-10-09T06:16:01.909Z,14.9
2022-10-09T06:17:02.038Z,14.8
2022-10-09T06:18:01.068Z,14.8
2022-10-09T06:19:01.099Z,14.9
2022-10-09T06:20:02.079Z,14.9
2022-10-09T06:21:01.777Z,15
2022-10-09T06:22:01.804Z,15.1
2022-10-09T06:23:01.391Z,15.1
2022-10-09T06:24:02.186Z,15.2
2022-10-09T06:25:09.818Z,15.3
2022-10-09T06:26:01.053Z,15.4
2022-10-09T06:27:01.399Z,15.2
2022-10-09T06:28:01.066Z,15.2
2022-10-09T06:29:01.047Z,15.4
2022-10-09T06:30:13.658Z,15.2
2022-10-09T06:31:00.881Z,15.2
2022-10-09T06:32:00.489Z,15.2
2022-10-09T06:33:00.084Z,15.2
2022-10-09T06:33:59.685Z,15.2
2022-10-09T06:35:15.793Z,15.3
2022-10-09T06:36:09.532Z,15.2
2022-10-09T06:37:05.055Z,15.4
2022-10-09T06:38:01.124Z,15.2
2022-10-09T06:39:01.069Z,15.3
2022-10-09T06:40:01.057Z,15.4
2022-10-09T06:41:01.715Z,15.5
2022-10-09T06:42:02.352Z,15.6
2022-10-09T06:43:01.654Z,15.5
2022-10-09T06:44:02.117Z,15.4
2022-10-09T06:45:02.076Z,15.5
2022-10-09T06:46:04.094Z,15.6
2022-10-09T06:47:01.358Z,15.6
2022-10-09T06:48:01.095Z,15.6
2022-10-09T06:49:01.042Z,15.6
2022-10-09T06:50:01.231Z,15.6
2022-10-09T06:51:00.842Z,15.6
2022-10-09T06:52:00.401Z,15.5
2022-10-09T06:52:59.963Z,15.6
2022-10-09T06:53:59.538Z,15.5
2022-10-09T06:55:01.194Z,15.7
2022-10-09T06:56:01.092Z,15.5
2022-10-09T06:57:01.070Z,15.5
2022-10-09T06:58:01.058Z,15.4
2022-10-09T06:59:01.154Z,15.5
2022-10-09T07:00:00.620Z,15.6
2022-10-09T07:01:00.262Z,15.6
2022-10-09T07:02:00.010Z,15.7
2022-10-09T07:02:59.734Z,15.7
2022-10-09T07:04:01.398Z,15.7
2022-10-09T07:05:00.982Z,15.6
2022-10-09T07:06:01.045Z,15.8
2022-10-09T07:07:01.062Z,15.8
2022-10-09T07:08:01.164Z,16
2022-10-09T07:09:01.446Z,16
2022-10-09T07:10:02.071Z,16.2
2022-10-09T07:11:01.425Z,16.5
2022-10-09T07:12:01.058Z,16.6
2022-10-09T07:13:01.139Z,16.8
2022-10-09T07:14:01.061Z,16.9
2022-10-09T07:15:00.614Z,16.9
2022-10-09T07:16:04.015Z,16.9
2022-10-09T07:17:02.651Z,16.9
2022-10-09T07:18:01.710Z,16.9
2022-10-09T07:19:02.447Z,16.9
2022-10-09T07:20:01.396Z,16.8
2022-10-09T07:21:01.063Z,16.7
2022-10-09T07:22:01.061Z,16.9
2022-10-09T07:23:01.062Z,17
2022-10-09T07:24:01.072Z,17.2
2022-10-09T07:25:00.682Z,17.3
2022-10-09T07:26:00.318Z,17.4
2022-10-09T07:26:59.960Z,17.5
2022-10-09T07:27:59.527Z,17.5
2022-10-09T07:29:01.678Z,16.5
2022-10-09T07:30:00.504Z,17.5
2022-10-09T07:31:00.348Z,17.6
2022-10-09T07:32:00.073Z,17.1
2022-10-09T07:32:59.642Z,17.2
2022-10-09T07:34:04.398Z,17.1
2022-10-09T07:35:01.219Z,17.3
2022-10-09T07:36:03.944Z,17.4
2022-10-09T07:37:03.060Z,17.4
2022-10-09T07:38:01.195Z,17.3
2022-10-09T07:39:01.386Z,17.5
2022-10-09T07:40:00.905Z,17.4
2022-10-09T07:41:01.436Z,17.5
2022-10-09T07:42:03.906Z,17.5
2022-10-09T07:43:01.088Z,17.6
2022-10-09T07:44:01.080Z,17.4
2022-10-09T07:45:00.675Z,17.2
2022-10-09T07:46:00.286Z,17.1
2022-10-09T07:46:59.947Z,17.1
2022-10-09T07:47:59.501Z,17.3
2022-10-09T07:49:01.684Z,17.1
2022-10-09T07:50:00.816Z,17.2
2022-10-09T07:51:01.714Z,17.2
2022-10-09T07:52:01.299Z,17.2
2022-10-09T07:53:00.924Z,17.2
2022-10-09T07:54:01.060Z,17.2
2022-10-09T07:55:00.606Z,17
2022-10-09T07:56:04.200Z,16.9
2022-10-09T07:57:02.311Z,16.8
2022-10-09T07:58:01.632Z,17.3
2022-10-09T07:59:01.575Z,17
2022-10-09T08:00:01.139Z,16.9
2022-10-09T08:01:06.925Z,16.8
2022-10-09T08:02:01.160Z,16.6
2022-10-09T08:03:01.876Z,16.5
2022-10-09T08:04:01.789Z,16.4
2022-10-09T08:05:00.578Z,16.2
2022-10-09T08:06:09.063Z,16.8
2022-10-09T08:07:01.095Z,16.4
2022-10-09T08:08:01.428Z,16.3
2022-10-09T08:09:02.503Z,16.6
2022-10-09T08:10:00.462Z,16.6
2022-10-09T08:11:01.629Z,16.4
2022-10-09T08:12:01.092Z,16.3
2022-10-09T08:13:01.504Z,16.2
2022-10-09T08:14:01.146Z,16.2
2022-10-09T08:15:00.760Z,16.5
2022-10-09T08:16:15.364Z,16.4
2022-10-09T08:17:01.399Z,16.3
2022-10-09T08:18:01.444Z,16.2
2022-10-09T08:19:02.060Z,16.2
2022-10-09T08:20:01.023Z,16.2
2022-10-09T08:21:01.044Z,16.2
2022-10-09T08:22:03.446Z,16.1
2022-10-09T08:23:01.398Z,16
2022-10-09T08:24:01.040Z,16.9
2022-10-09T08:25:00.631Z,18.2
2022-10-09T08:26:00.221Z,18.2
2022-10-09T08:26:59.764Z,17.8
2022-10-09T08:28:02.305Z,17.1
2022-10-09T08:29:01.798Z,16.8
2022-10-09T08:30:02.453Z,16.6
2022-10-09T08:31:01.635Z,16.5
2022-10-09T08:32:01.890Z,16.4
2022-10-09T08:33:01.050Z,16.6
2022-10-09T08:34:01.053Z,16.6
2022-10-09T08:35:00.599Z,16.3
2022-10-09T08:36:00.138Z,16.4
2022-10-09T08:36:59.762Z,16.4
2022-10-09T08:38:01.464Z,16.2
2022-10-09T08:39:01.173Z,16.2
2022-10-09T08:40:00.745Z,16.3
2022-10-09T08:41:00.294Z,16
2022-10-09T08:41:59.860Z,15.9
2022-10-09T08:43:03.174Z,15.8
2022-10-09T08:44:01.418Z,15.9
2022-10-09T08:45:00.854Z,15.9
2022-10-09T08:46:01.248Z,15.9
2022-10-09T08:47:02.229Z,16
2022-10-09T08:48:02.205Z,16.8
2022-10-09T08:49:02.180Z,16.9
2022-10-09T08:50:01.006Z,16.7
2022-10-09T08:51:01.244Z,16.3
2022-10-09T08:52:00.865Z,16.2
2022-10-09T08:53:01.052Z,16
2022-10-09T08:54:01.045Z,16.1
2022-10-09T08:55:00.606Z,15.9
2022-10-09T08:56:00.216Z,15.9
2022-10-09T08:56:59.791Z,15.9
2022-10-09T08:58:02.252Z,15.8
2022-10-09T08:59:01.807Z,15.8
2022-10-09T09:00:00.807Z,15.7
2022-10-09T09:01:01.056Z,16
2022-10-09T09:02:01.286Z,17.5
2022-10-09T09:03:01.279Z,17.3
2022-10-09T09:04:01.954Z,17.7
2022-10-09T09:05:00.924Z,17.7
2022-10-09T09:06:01.429Z,17
2022-10-09T09:07:01.086Z,16.5
2022-10-09T09:08:00.745Z,15.9
2022-10-09T09:09:01.326Z,15.8
2022-10-09T09:10:02.196Z,15.3
2022-10-09T09:11:01.325Z,15.1
2022-10-09T09:12:00.637Z,15
2022-10-09T09:13:00.420Z,16.4
2022-10-09T09:14:00.010Z,16.7
2022-10-09T09:14:59.608Z,16.3
2022-10-09T09:16:01.272Z,15.4
2022-10-09T09:17:01.937Z,15.2
2022-10-09T09:18:02.388Z,14.9
2022-10-09T09:19:01.410Z,15
2022-10-09T09:20:01.016Z,14.8
2022-10-09T09:21:01.426Z,14.5
2022-10-09T09:22:01.038Z,14.4
2022-10-09T09:23:01.070Z,14.4
2022-10-09T09:24:01.064Z,14.3
2022-10-09T09:25:00.777Z,14.3
2022-10-09T09:26:00.442Z,14.3
2022-10-09T09:26:59.974Z,14.3
2022-10-09T09:27:59.530Z,14.3
2022-10-09T09:29:01.623Z,14.2
2022-10-09T09:30:00.466Z,13.9
2022-10-09T09:31:00.181Z,13.8
2022-10-09T09:31:59.985Z,13.5
2022-10-09T09:32:59.644Z,13.4
2022-10-09T09:34:01.994Z,13.1
2022-10-09T09:35:01.403Z,12.3
2022-10-09T09:36:02.261Z,12.2
2022-10-09T09:37:02.225Z,12.4
2022-10-09T09:38:02.109Z,12.7
2022-10-09T09:39:49.947Z,13.8
2022-10-09T09:40:35.682Z,13.5
2022-10-09T09:41:01.298Z,13.2
2022-10-09T09:42:03.746Z,12.7
2022-10-09T09:43:04.983Z,12
2022-10-09T09:44:01.836Z,11.6
2022-10-09T09:45:00.743Z,11.6
2022-10-09T09:46:00.323Z,11.8
2022-10-09T09:47:05.282Z,12.1
2022-10-09T09:48:01.356Z,11.8
2022-10-09T09:49:03.791Z,11.7
2022-10-09T09:50:00.851Z,11.5
2022-10-09T09:51:23.368Z,11.3
2022-10-09T09:52:06.698Z,10.4
2022-10-09T09:53:01.711Z,10.2
2022-10-09T09:54:01.697Z,10.5
2022-10-09T09:55:01.268Z,10.5
2022-10-09T09:56:01.862Z,10.3
2022-10-09T09:57:14.929Z,10
2022-10-09T09:58:02.053Z,9.6
2022-10-09T09:59:03.966Z,9.4
2022-10-09T10:00:00.638Z,9.1
2022-10-09T10:01:00.433Z,8.8
2022-10-09T10:02:12.120Z,8.7
2022-10-09T10:03:01.077Z,8.9
2022-10-09T10:04:01.052Z,9.4
2022-10-09T10:05:00.632Z,8.3
2022-10-09T10:06:00.188Z,8.1
2022-10-09T10:07:14.340Z,8.2
2022-10-09T10:08:01.794Z,8
2022-10-09T10:09:01.948Z,7.7
2022-10-09T10:10:01.075Z,7.2
2022-10-09T10:11:01.431Z,7.3
2022-10-09T10:12:16.984Z,7.3
2022-10-09T10:13:01.528Z,7.2
2022-10-09T10:14:01.129Z,6.3
2022-10-09T10:15:00.739Z,6.3
2022-10-09T10:16:00.380Z,6.6
2022-10-09T10:16:59.965Z,6.3
2022-10-09T10:17:59.548Z,6.3
2022-10-09T10:19:04.388Z,6.2
2022-10-09T10:20:01.130Z,6.4
2022-10-09T10:21:02.043Z,7
2022-10-09T10:22:01.519Z,7.3
2022-10-09T10:23:01.096Z,7.5
2022-10-09T10:25:00.663Z,7.2
2022-10-09T10:26:00.249Z,7.2
2022-10-09T10:26:59.807Z,7.4
2022-10-09T10:28:01.459Z,9.5
2022-10-09T10:29:01.187Z,9.1
2022-10-09T10:30:00.751Z,8.8
2022-10-09T10:31:00.519Z,8
2022-10-09T10:32:00.205Z,7.9
2022-10-09T10:32:59.785Z,9.2
2022-10-09T10:34:02.482Z,8.8
2022-10-09T10:35:01.362Z,6.7
2022-10-09T10:36:02.412Z,6.2
2022-10-09T10:37:03.257Z,5.9
2022-10-09T10:38:01.159Z,6.3
2022-10-09T10:39:02.069Z,4.5
2022-10-09T10:40:00.735Z,4
2022-10-09T10:41:00.281Z,2.7
2022-10-09T10:41:59.865Z,1.4
2022-10-09T10:43:02.425Z,2
2022-10-09T10:44:01.444Z,1.9
2022-10-09T10:45:01.037Z,2.1
2022-10-09T10:46:01.044Z,2.3
2022-10-09T10:47:01.110Z,2.2
2022-10-09T10:48:01.442Z,1.7
2022-10-09T10:49:01.068Z,1.2
2022-10-09T10:50:00.639Z,1
2022-10-09T10:51:00.210Z,1
2022-10-09T10:51:59.872Z,1
2022-10-09T10:52:59.585Z,1
2022-10-09T10:54:01.740Z,1
2022-10-09T10:55:01.166Z,1
2022-10-09T10:56:05.058Z,1
2022-10-09T10:57:01.695Z,1
2022-10-09T10:58:01.160Z,1
2022-10-09T10:59:01.058Z,1
2022-10-09T11:00:00.663Z,1
2022-10-09T11:01:00.389Z,1
2022-10-09T11:02:00.002Z,1
2022-10-09T11:02:59.656Z,1
2022-10-09T11:04:01.725Z,1
2022-10-09T11:05:01.264Z,1
2022-10-09T11:06:01.050Z,1
2022-10-09T11:07:01.941Z,1
2022-10-09T11:08:01.055Z,1
2022-10-09T11:09:01.066Z,1
2022-10-09T11:10:01.865Z,1
2022-10-09T11:11:02.323Z,1
2022-10-09T11:12:01.313Z,1
2022-10-09T11:13:02.176Z,1
2022-10-09T11:14:01.459Z,1
2022-10-09T11:15:01.022Z,1
2022-10-09T11:16:01.093Z,1
2022-10-09T11:17:01.038Z,1
2022-10-09T11:18:01.047Z,1
2022-10-09T11:19:01.121Z,1
2022-10-09T11:20:00.620Z,1
2022-10-09T11:21:00.230Z,1
2022-10-09T11:21:59.850Z,1
2022-10-09T11:23:02.492Z,1
2022-10-09T11:24:02.522Z,1
2022-10-09T11:25:01.086Z,1
2022-10-09T11:26:01.379Z,1
2022-10-09T11:27:03.617Z,1
2022-10-09T11:28:02.306Z,1
2022-10-09T11:29:03.115Z,1
2022-10-09T11:30:01.079Z,1
2022-10-09T11:31:01.797Z,1
2022-10-09T11:32:01.607Z,1
2022-10-09T11:33:04.590Z,1
2022-10-09T11:34:01.177Z,1
2022-10-09T11:35:00.782Z,1
2022-10-09T11:36:00.315Z,1
2022-10-09T11:36:59.862Z,1
2022-10-09T11:38:08.261Z,1
2022-10-09T11:39:02.504Z,1
2022-10-09T11:40:00.639Z,1
2022-10-09T11:41:06.451Z,1
2022-10-09T11:42:01.956Z,1
2022-10-09T11:43:10.388Z,1
2022-10-09T11:44:01.430Z,1
2022-10-09T11:45:00.999Z,1
2022-10-09T11:46:01.098Z,1
2022-10-09T11:47:02.018Z,1
2022-10-09T11:48:13.427Z,1
2022-10-09T11:49:01.153Z,1
2022-10-09T11:50:00.808Z,1
2022-10-09T11:51:00.423Z,1
2022-10-09T11:52:00.027Z,1
2022-10-09T11:53:15.241Z,1
2022-10-09T11:54:01.322Z,1
2022-10-09T11:55:01.027Z,1
2022-10-09T11:56:01.428Z,1
2022-10-09T11:57:02.729Z,1
2022-10-09T11:58:01.153Z,1
2022-10-09T11:59:01.049Z,1
2022-10-09T12:00:00.705Z,1
2022-10-09T12:01:00.531Z,1
2022-10-09T12:02:00.293Z,1
2022-10-09T12:02:59.902Z,1
2022-10-09T12:04:00.682Z,1
2022-10-09T12:05:01.059Z,1
2022-10-09T12:06:04.234Z,1
2022-10-09T12:07:02.441Z,1
2022-10-09T12:08:01.275Z,1
2022-10-09T12:09:02.278Z,1
2022-10-09T12:10:01.410Z,1
2022-10-09T12:11:04.148Z,1
2022-10-09T12:12:01.306Z,1
2022-10-09T12:13:01.170Z,1
2022-10-09T12:14:04.453Z,1
2022-10-09T12:15:00.763Z,1
2022-10-09T12:16:00.350Z,1
2022-10-09T12:17:00.062Z,1
2022-10-09T12:17:59.701Z,1
2022-10-09T12:19:01.690Z,1
2022-10-09T12:20:01.431Z,1
2022-10-09T12:21:01.090Z,1
2022-10-09T12:22:01.205Z,1
2022-10-09T12:23:25.068Z,1
2022-10-09T12:24:01.170Z,1
2022-10-09T12:25:01.052Z,1
2022-10-09T12:26:01.068Z,1
2022-10-09T12:27:01.059Z,1
2022-10-09T12:28:01.070Z,1
2022-10-09T12:29:01.095Z,1
2022-10-09T12:30:00.534Z,1
2022-10-09T12:31:00.271Z,1
2022-10-09T12:31:59.864Z,1
2022-10-09T12:33:01.509Z,1
2022-10-09T12:34:01.062Z,1
2022-10-09T12:35:00.706Z,1
2022-10-09T12:36:00.399Z,1
2022-10-09T12:36:59.987Z,1
2022-10-09T12:37:59.606Z,1
2022-10-09T12:39:02.361Z,1
2022-10-09T12:40:01.188Z,1
2022-10-09T12:41:02.322Z,1
2022-10-09T12:42:02.265Z,1
2022-10-09T12:43:01.453Z,1
2022-10-09T12:44:01.203Z,1
2022-10-09T12:45:02.059Z,1
2022-10-09T12:46:01.146Z,1
2022-10-09T12:47:01.255Z,1
2022-10-09T12:48:01.140Z,1
2022-10-09T12:49:01.350Z,1
2022-10-09T12:50:01.367Z,1
2022-10-09T12:51:04.115Z,1
2022-10-09T12:52:01.124Z,1
2022-10-09T12:53:03.971Z,1
2022-10-09T12:54:01.116Z,1
2022-10-09T12:55:01.049Z,1
2022-10-09T12:56:01.056Z,1
2022-10-09T12:57:01.061Z,1
2022-10-09T12:58:01.062Z,1
2022-10-09T12:59:01.292Z,1
2022-10-09T13:00:01.641Z,1
2022-10-09T13:01:01.235Z,1
2022-10-09T13:02:02.235Z,1
2022-10-09T13:03:01.189Z,1
2022-10-09T13:04:01.118Z,1
2022-10-09T13:05:01.508Z,1
2022-10-09T13:06:01.224Z,1
2022-10-09T13:07:02.700Z,1
2022-10-09T13:08:01.997Z,1
2022-10-09T13:09:01.254Z,1
2022-10-09T13:10:01.955Z,1
2022-10-09T13:11:02.754Z,1
2022-10-09T13:12:01.362Z,1
2022-10-09T13:13:02.043Z,1
2022-10-09T13:14:01.873Z,1
2022-10-09T13:15:01.076Z,1
2022-10-09T13:16:01.060Z,1
2022-10-09T13:17:01.262Z,1
2022-10-09T13:18:01.230Z,1
2022-10-09T13:19:05.437Z,1
2022-10-09T13:20:01.859Z,1
2022-10-09T13:21:01.560Z,1
2022-10-09T13:22:01.368Z,1
2022-10-09T13:23:02.268Z,1
2022-10-09T13:24:08.382Z,1
2022-10-09T13:25:01.946Z,1
2022-10-09T13:26:03.497Z,1
2022-10-09T13:27:01.304Z,1
2022-10-09T13:28:01.925Z,1
2022-10-09T13:29:13.222Z,1
2022-10-09T13:30:01.213Z,1
2022-10-09T13:31:01.582Z,1
2022-10-09T13:32:00.888Z,1
2022-10-09T13:33:00.736Z,1
2022-10-09T13:34:00.296Z,1
2022-10-09T13:34:59.870Z,1
2022-10-09T13:35:59.404Z,1
2022-10-09T13:37:01.145Z,1
2022-10-09T13:38:01.315Z,1
2022-10-09T13:39:01.246Z,1
2022-10-09T13:40:01.938Z,1
2022-10-09T13:41:01.942Z,1
2022-10-09T13:42:01.342Z,1
2022-10-09T13:43:01.071Z,1
2022-10-09T13:44:01.420Z,1
2022-10-09T13:45:01.221Z,1
2022-10-09T13:46:01.214Z,1